• Join FlightAware (Why Join?)
  • Login
  • US Flag 
09:08AM EDT


 

Airport Tracker/Info


-or-


 

Live Flight TrackerFlight Track Log ✈ AWE3202 ✈ 17-Jun-2014 ✈ KDCA - KMHT

Flight Track Log - Related Links

Times and Time Zones

All times are in EDT time to prevent confusion due to time zone crossing. See the AWE3202 flight status page for this flight to view local times or setup timezone preferences in your user account.

Time Position Orientation Groundspeed Altitude Reporting Facility
EDT Latitude Longitude Course Direction KTS MPH feet Rate Location/Type
10:21PM 38.8161 -76.9450 55° Northeast 136 157 5,700  Level Washington Center
10:22PM 38.9786 -76.5356 72° East  Level FlightAware Approximate
10:22PM 38.8856 -76.8878 33° Northeast 197 227 8,600  Level Washington Center
10:23PM 39.0083 -76.4085 76° East  Level FlightAware Approximate
10:23PM 38.9550 -76.8275 34° Northeast 260 299 11,500  Level Washington Center
10:24PM 39.0211 -76.2777 76° East  Level FlightAware Approximate
10:24PM 38.9789 -76.7158 75° East 274 315 13,000  Level Washington Center
10:25PM 38.9989 -76.5825 79° East 324 373 14,800 1,860 Climbing Washington Center
10:26PM 39.0167 -76.4411 81° East 366 421 16,800 1,860 Climbing Washington Center
10:27PM 39.0281 -76.2944 84° East 391 450 18,600 1,620 Climbing Washington Center
10:28PM 39.0392 -76.1556 84° East 420 483 20,100 1,500 Climbing Washington Center
10:29PM 39.0461 -75.9978 87° East 432 497 21,700 1,440 Climbing Washington Center
10:30PM 39.0528 -75.8403 87° East 437 503 23,000 660 Climbing Washington Center
10:31PM 39.0592 -75.6772 87° East 447 514 23,000  Level Washington Center
10:32PM 39.0675 -75.5167 86° East 452 520 23,000 480 Level Washington Center
10:33PM 39.0922 -75.3564 79° East 452 520 24,000 1,740 Climbing Washington Center
10:34PM 39.1608 -75.2356 54° Northeast 426 490 26,600 1,920 Climbing Washington Center
10:35PM 39.2333 -75.1172 52° Northeast 409 471 27,800 1,140 Climbing Washington Center
10:36PM 39.3100 -74.9989 50° Northeast 421 484 28,900 540 Climbing Washington Center
10:37PM 39.3906 -74.8692 51° Northeast 436 502 29,000  Climbing Washington Center
10:38PM 39.4728 -74.7339 52° Northeast 457 526 29,000  Level Washington Center
10:39PM 39.5594 -74.5956 51° Northeast 478 550 29,000  Level Washington Center
10:40PM 39.6456 -74.4544 52° Northeast 483 556 29,000  Level Washington Center
10:41PM 39.7317 -74.3153 51° Northeast 491 565 29,000  Level Washington Center
10:42PM 39.8156 -74.1733 52° Northeast 491 565 29,000  Level Washington Center
10:43PM 39.9114 -74.0200 51° Northeast 499 574 29,000  Level Washington Center
10:44PM 40.0167 -73.8492 51° Northeast 496 571 29,000  Level Boston Center
10:45PM 40.1003 -73.7086 52° Northeast 496 571 29,000  Level Boston Center
10:46PM 40.2067 -73.5519 48° Northeast 493 567 29,000  Level Boston Center
10:47PM 40.3142 -73.4339 40° Northeast 494 568 29,000  Level Boston Center
10:48PM 40.4181 -73.3175 40° Northeast 494 568 29,000  Level Boston Center
10:49PM 40.5214 -73.2006 41° Northeast 494 568 29,000  Level Boston Center
10:50PM 40.6250 -73.0833 41° Northeast 493 567 29,000  Level Boston Center
10:51PM 40.7286 -72.9650 41° Northeast 493 567 29,000 -480 Level Boston Center
10:52PM 40.8342 -72.8442 41° Northeast 494 568 28,100 -960 Descending Boston Center
10:53PM 40.9356 -72.7264 41° Northeast 491 565 27,100 -1,080 Descending Boston Center
10:54PM 41.0356 -72.6111 41° Northeast 481 554 26,000 -1,020 Descending Boston Center
10:55PM 41.1322 -72.4981 41° Northeast 470 541 25,100 -960 Descending Boston Center
10:56PM 41.2300 -72.3850 41° Northeast 469 540 24,000 -1,080 Descending Boston Center
10:57PM 41.3528 -72.3322 18° North 443 510 23,000 -1,020 Descending Boston Center
10:58PM 41.4714 -72.3058 North 435 501 22,000 -540 Descending Boston Center
10:59PM 41.6042 -72.2767 North 429 494 22,000 -660 Level Boston Center
11:00PM 41.6778 -72.2586 10° North 425 489 20,900 -1,920 Descending Boston Center
11:00PM 41.7136 -72.2511 North 423 487 20,200 -1,980 Descending Boston Center
11:02PM 41.8600 -72.2189 North 403 464 17,700 -1,920 Descending Boston Center
11:02PM 41.9419 -72.1994 10° North 390 449 16,200 -1,800 Descending Boston Center
11:03PM 41.9731 -72.1922 10° North 385 443 15,700 -1,800 Descending Boston Center
11:03PM 42.0450 -72.1756 10° North 382 440 14,400 -1,920 Descending Boston Center
11:04PM 42.1544 -72.1500 10° North 376 433 12,500 -1,680 Descending Boston Center
11:06PM 42.2561 -72.1258 10° North 375 432 11,000 -1,200 Descending Boston Center
11:07PM 42.3519 -72.1033 10° North 354 407 10,100 -900 Descending Boston Center
11:08PM 42.4347 -72.0825 11° North 308 354 9,300 -540 Descending Boston Center
11:09PM 42.5003 -72.0064 41° Northeast 314 361 9,100 -120 Descending Boston Center
11:10PM 42.5633 -71.9247 44° Northeast 314 361 9,100 -60 Level Boston Center
11:11PM 42.6350 -71.8436 40° Northeast 313 360 9,000 -420 Descending Boston Center
11:12PM 42.7036 -71.7731 37° Northeast 312 359 8,300 -1,320 Descending Boston Center
11:13PM 42.7714 -71.7022 37° Northeast 311 358 6,500 -1,800 Descending Boston Center
11:14PM 42.8389 -71.6333 37° Northeast 305 351 4,700 -1,740 Descending Boston Center
11:15PM 42.9169 -71.5978 18° North 298 343 3,000 -840 Descending Boston Center
11:16PM 42.9858 -71.5667 18° North 256 295 3,000 -420 Level Boston Center
11:17PM 43.0167 -71.4967 59° Northeast 214 246 2,200 -960 Descending Boston Center
11:18PM 42.9819 -71.4633 145° Southeast 145 167 1,100 -900 Descending Boston Center
11:19PM 42.9492 -71.4439 157° South 133 153 400 -720 Descending Boston Center
11:21PM 42.9328 -71.4358 160° South  Level Estimated